Time;durP1;ratioP1;P1;durP2;ratioP2;P2;SDS_P1;SDS_P2;PMS_P1;PMS_P2;Temp;Humidity;BMP_temperature;BMP_pressure;BME280_temperature;BME280_humidity;BME280_pressure;Samples;Min_cycle;Max_cycle;Signal;HPM_P1;HPM_P2
2023/10/21 00:01:01;;;;;;;6.07;2.80;;;;;;;;;;5101705;28;20333;-72
2023/10/21 00:03:27;;;;;;;5.30;2.95;;;;;;;;;;5099977;28;20717;-73
2023/10/21 00:05:53;;;;;;;7.53;3.10;;;;;;;;;;5101915;28;20054;-73
2023/10/21 00:08:19;;;;;;;6.80;2.97;;;;;;;;;;5093525;28;20050;-73
2023/10/21 00:10:45;;;;;;;8.70;3.00;;;;;;;;;;5092757;28;20032;-73
2023/10/21 00:13:11;;;;;;;7.88;3.30;;;;;;;;;;5093406;28;20032;-72
2023/10/21 00:15:37;;;;;;;7.82;3.33;;;;;;;;;;5093402;28;20032;-73
2023/10/21 00:18:03;;;;;;;9.02;3.70;;;;;;;;;;5093240;28;20024;-73
2023/10/21 00:20:29;;;;;;;8.95;3.70;;;;;;;;;;5093128;28;20543;-73
2023/10/21 00:22:55;;;;;;;7.63;3.40;;;;;;;;;;5092146;28;20112;-73
2023/10/21 00:25:21;;;;;;;10.18;4.32;;;;;;;;;;5093091;28;20028;-71
2023/10/21 00:27:48;;;;;;;9.15;4.07;;;;;;;;;;5093168;28;20035;-72
2023/10/21 00:30:14;;;;;;;9.05;3.95;;;;;;;;;;5092902;28;20028;-73
2023/10/21 00:32:40;;;;;;;10.70;4.45;;;;;;;;;;5092730;28;20085;-72
2023/10/21 00:35:06;;;;;;;9.38;4.32;;;;;;;;;;5093121;28;20031;-73
2023/10/21 00:37:32;;;;;;;7.57;4.22;;;;;;;;;;5092865;28;20028;-73
2023/10/21 00:39:58;;;;;;;13.27;5.10;;;;;;;;;;5092813;28;20028;-71
2023/10/21 00:42:24;;;;;;;12.55;4.60;;;;;;;;;;5092851;28;20105;-73
2023/10/21 00:44:50;;;;;;;9.48;4.60;;;;;;;;;;5092920;28;20065;-71
2023/10/21 00:47:16;;;;;;;10.15;4.75;;;;;;;;;;5092773;28;20483;-72
2023/10/21 00:49:42;;;;;;;9.40;4.85;;;;;;;;;;5092669;28;20479;-73
2023/10/21 00:52:10;;;;;;;16.05;5.82;;;;;;;;;;5092806;28;20028;-72
2023/10/21 00:54:36;;;;;;;17.63;5.93;;;;;;;;;;5092922;28;20024;-72
2023/10/21 00:57:02;;;;;;;18.77;6.40;;;;;;;;;;5092773;28;20027;-72
2023/10/21 00:59:28;;;;;;;14.07;6.18;;;;;;;;;;5092394;28;20032;-73
2023/10/21 01:01:54;;;;;;;15.95;6.18;;;;;;;;;;5092428;28;20498;-73
2023/10/21 01:04:20;;;;;;;13.13;6.53;;;;;;;;;;5092634;28;20024;-73
2023/10/21 01:06:46;;;;;;;13.68;7.03;;;;;;;;;;5091094;28;20081;-73
2023/10/21 01:09:15;;;;;;;15.23;6.90;;;;;;;;;;5092346;28;20402;-73
2023/10/21 01:11:41;;;;;;;16.92;6.75;;;;;;;;;;5092122;28;20024;-73
2023/10/21 01:14:09;;;;;;;14.65;6.50;;;;;;;;;;5092871;28;20072;-72
2023/10/21 01:16:35;;;;;;;15.73;6.63;;;;;;;;;;5092084;28;20024;-73
2023/10/21 01:19:01;;;;;;;16.10;6.68;;;;;;;;;;5092303;28;20479;-73
2023/10/21 01:21:27;;;;;;;11.27;6.05;;;;;;;;;;5091410;28;20031;-75
2023/10/21 01:23:53;;;;;;;11.10;6.10;;;;;;;;;;5092375;28;20052;-73
2023/10/21 01:26:19;;;;;;;16.80;6.82;;;;;;;;;;5092512;28;20047;-73
2023/10/21 01:28:45;;;;;;;17.25;7.32;;;;;;;;;;5092318;28;20050;-73
2023/10/21 01:31:11;;;;;;;16.27;7.35;;;;;;;;;;5091781;28;20028;-73
2023/10/21 01:33:37;;;;;;;21.05;7.03;;;;;;;;;;5092266;28;20028;-72
2023/10/21 01:36:03;;;;;;;18.08;7.43;;;;;;;;;;5092552;28;20134;-72
2023/10/21 01:38:29;;;;;;;12.70;6.72;;;;;;;;;;5092140;28;20032;-74
2023/10/21 01:40:55;;;;;;;18.00;7.60;;;;;;;;;;5091985;28;20126;-73
2023/10/21 01:43:21;;;;;;;15.05;7.95;;;;;;;;;;5092003;28;20464;-72
2023/10/21 01:45:47;;;;;;;15.15;7.70;;;;;;;;;;5091785;28;20032;-71
2023/10/21 01:48:13;;;;;;;16.25;7.93;;;;;;;;;;5090787;28;20070;-72
2023/10/21 01:50:39;;;;;;;19.48;8.80;;;;;;;;;;5091811;28;20077;-72
2023/10/21 01:53:05;;;;;;;17.98;8.20;;;;;;;;;;5091926;28;20024;-72
2023/10/21 01:55:31;;;;;;;17.40;8.73;;;;;;;;;;5091871;28;20036;-72
2023/10/21 01:57:58;;;;;;;21.75;9.68;;;;;;;;;;5091776;28;20024;-72
2023/10/21 02:00:24;;;;;;;21.25;9.45;;;;;;;;;;5091580;28;20379;-72
2023/10/21 02:02:51;;;;;;;19.35;9.68;;;;;;;;;;5091974;28;20468;-73
2023/10/21 02:05:17;;;;;;;23.08;10.73;;;;;;;;;;5091932;28;20150;-73
2023/10/21 02:07:43;;;;;;;20.27;9.13;;;;;;;;;;5092554;28;20091;-72
2023/10/21 02:10:09;;;;;;;22.45;10.63;;;;;;;;;;5093641;28;20039;-73
2023/10/21 02:12:35;;;;;;;20.83;9.80;;;;;;;;;;5075361;28;20029;-72
2023/10/21 02:15:01;;;;;;;23.45;10.63;;;;;;;;;;5093486;28;20020;-72
2023/10/21 02:17:27;;;;;;;21.38;10.65;;;;;;;;;;5093507;28;20501;-73
2023/10/21 02:19:56;;;;;;;21.77;10.77;;;;;;;;;;5092863;28;20441;-73
2023/10/21 02:22:22;;;;;;;18.75;9.75;;;;;;;;;;5091576;28;20016;-76
2023/10/21 02:24:48;;;;;;;26.55;10.93;;;;;;;;;;5091585;28;20063;-73
2023/10/21 02:27:14;;;;;;;22.15;11.48;;;;;;;;;;5091348;28;20468;-73
2023/10/21 02:29:40;;;;;;;23.52;10.98;;;;;;;;;;5073152;28;20035;-72
2023/10/21 02:32:06;;;;;;;26.77;11.88;;;;;;;;;;5091518;28;20506;-73
2023/10/21 02:34:32;;;;;;;22.90;11.10;;;;;;;;;;5094444;28;20028;-74
2023/10/21 02:36:58;;;;;;;27.85;12.52;;;;;;;;;;5095315;28;20028;-73
2023/10/21 02:39:24;;;;;;;26.92;11.55;;;;;;;;;;5095063;28;20467;-74
2023/10/21 02:41:50;;;;;;;22.23;11.57;;;;;;;;;;5095478;28;20020;-73
2023/10/21 02:44:16;;;;;;;34.17;12.35;;;;;;;;;;5095266;28;20023;-73
2023/10/21 02:46:42;;;;;;;28.95;12.60;;;;;;;;;;5095175;28;20055;-73
2023/10/21 02:49:08;;;;;;;30.80;13.38;;;;;;;;;;5095547;28;20047;-72
2023/10/21 02:51:34;;;;;;;30.05;12.88;;;;;;;;;;5096816;28;20035;-72
2023/10/21 02:54:00;;;;;;;34.03;13.75;;;;;;;;;;5098039;28;20028;-73
2023/10/21 02:56:26;;;;;;;35.88;13.80;;;;;;;;;;5096925;28;20024;-72
2023/10/21 02:58:52;;;;;;;32.03;13.75;;;;;;;;;;5096725;28;20038;-72
2023/10/21 03:01:19;;;;;;;33.97;14.10;;;;;;;;;;5096765;28;20043;-72
2023/10/21 03:03:46;;;;;;;31.70;14.98;;;;;;;;;;5097392;28;20024;-74
2023/10/21 03:06:12;;;;;;;35.17;14.75;;;;;;;;;;5097343;28;20024;-73
2023/10/21 03:08:39;;;;;;;37.80;15.40;;;;;;;;;;5096768;28;20031;-73
2023/10/21 03:11:05;;;;;;;27.90;14.80;;;;;;;;;;5093131;28;20036;-72
2023/10/21 03:13:31;;;;;;;31.92;15.25;;;;;;;;;;5094656;28;20027;-72
2023/10/21 03:15:58;;;;;;;35.55;16.08;;;;;;;;;;5094966;28;20024;-72
2023/10/21 03:18:24;;;;;;;36.45;15.18;;;;;;;;;;5096926;28;20027;-71
2023/10/21 03:20:53;;;;;;;37.17;16.25;;;;;;;;;;5097316;28;20062;-73
2023/10/21 03:23:19;;;;;;;39.58;16.45;;;;;;;;;;5095131;28;20376;-71
2023/10/21 03:25:55;;;;;;;35.80;15.77;;;;;;;;;;5094320;28;20020;-73
2023/10/21 03:28:22;;;;;;;34.85;16.90;;;;;;;;;;5096983;28;20398;-73
2023/10/21 03:30:48;;;;;;;41.42;17.05;;;;;;;;;;5097110;28;20043;-73
2023/10/21 03:33:15;;;;;;;35.20;16.58;;;;;;;;;;5097646;28;20039;-73
2023/10/21 03:35:41;;;;;;;43.30;16.67;;;;;;;;;;5098985;28;20024;-72
2023/10/21 03:38:07;;;;;;;39.97;17.20;;;;;;;;;;5104340;28;20039;-73
2023/10/21 03:40:33;;;;;;;33.22;16.80;;;;;;;;;;5105317;28;20031;-72
2023/10/21 03:42:59;;;;;;;39.13;17.60;;;;;;;;;;5106653;28;20054;-73
2023/10/21 03:45:25;;;;;;;43.30;18.35;;;;;;;;;;5094481;28;20012;-72
2023/10/21 03:47:51;;;;;;;46.25;17.77;;;;;;;;;;5092968;28;20502;-72
2023/10/21 03:50:18;;;;;;;48.80;17.83;;;;;;;;;;5092747;28;20028;-72
2023/10/21 03:52:43;;;;;;;46.08;17.83;;;;;;;;;;5074717;28;20030;-73
2023/10/21 03:55:09;;;;;;;37.78;17.35;;;;;;;;;;5093017;28;20107;-72
2023/10/21 03:57:35;;;;;;;36.70;17.95;;;;;;;;;;5093776;28;20031;-72
2023/10/21 04:00:04;;;;;;;47.20;17.70;;;;;;;;;;5093616;28;20035;-73
2023/10/21 04:02:31;;;;;;;40.58;19.35;;;;;;;;;;5078539;28;20043;-72
2023/10/21 04:04:57;;;;;;;55.05;18.55;;;;;;;;;;5095569;28;20019;-72
2023/10/21 04:07:23;;;;;;;40.95;18.33;;;;;;;;;;5072232;28;20013;-75
2023/10/21 04:09:49;;;;;;;37.30;18.60;;;;;;;;;;5101664;28;20031;-74
2023/10/21 04:12:15;;;;;;;40.55;17.55;;;;;;;;;;5094858;28;20028;-77
2023/10/21 04:14:41;;;;;;;44.85;17.80;;;;;;;;;;5088764;28;20388;-74
2023/10/21 04:17:07;;;;;;;43.38;18.73;;;;;;;;;;5105778;28;20027;-73
2023/10/21 04:19:33;;;;;;;36.13;18.17;;;;;;;;;;5113359;28;20463;-72
2023/10/21 04:21:59;;;;;;;50.90;17.95;;;;;;;;;;5113981;28;20035;-72
2023/10/21 04:24:25;;;;;;;42.15;19.38;;;;;;;;;;5114740;28;20068;-72
2023/10/21 04:26:51;;;;;;;39.70;18.25;;;;;;;;;;5114395;28;20023;-73
2023/10/21 04:29:17;;;;;;;43.42;18.75;;;;;;;;;;5113677;28;20035;-74
2023/10/21 04:31:43;;;;;;;34.63;17.80;;;;;;;;;;5113148;28;20032;-74
2023/10/21 04:34:09;;;;;;;38.40;17.35;;;;;;;;;;5113630;28;20060;-73
2023/10/21 04:36:35;;;;;;;49.97;17.95;;;;;;;;;;5113361;28;20023;-73
2023/10/21 04:39:01;;;;;;;34.85;18.35;;;;;;;;;;5113500;28;20027;-73
2023/10/21 04:41:27;;;;;;;39.67;19.60;;;;;;;;;;5113160;28;20024;-72
2023/10/21 04:43:53;;;;;;;44.03;18.40;;;;;;;;;;5113377;28;20039;-72
2023/10/21 04:46:19;;;;;;;41.78;18.45;;;;;;;;;;5113294;28;20463;-73
2023/10/21 04:48:45;;;;;;;37.28;19.15;;;;;;;;;;5113014;28;20023;-73
2023/10/21 04:51:11;;;;;;;45.90;19.00;;;;;;;;;;5113050;28;20046;-73
2023/10/21 04:53:37;;;;;;;42.22;18.40;;;;;;;;;;5113187;28;20084;-73
2023/10/21 04:56:04;;;;;;;44.05;18.00;;;;;;;;;;5112855;28;20024;-73
2023/10/21 04:58:29;;;;;;;34.47;17.38;;;;;;;;;;5112905;28;20107;-73
2023/10/21 05:00:55;;;;;;;46.65;18.15;;;;;;;;;;5112886;28;20055;-72
2023/10/21 05:03:22;;;;;;;42.42;18.60;;;;;;;;;;5112896;28;20026;-72
2023/10/21 05:05:48;;;;;;;49.70;20.05;;;;;;;;;;5107931;28;20057;-76
2023/10/21 05:08:14;;;;;;;40.35;18.02;;;;;;;;;;5095883;28;20051;-74
2023/10/21 05:10:40;;;;;;;50.92;18.67;;;;;;;;;;5093980;28;20475;-76
2023/10/21 05:13:06;;;;;;;42.83;19.70;;;;;;;;;;5099871;28;20600;-76
2023/10/21 05:15:32;;;;;;;53.35;20.02;;;;;;;;;;5090893;28;20038;-76
2023/10/21 05:17:58;;;;;;;46.88;19.73;;;;;;;;;;5096220;28;20209;-76
2023/10/21 05:20:24;;;;;;;44.97;19.75;;;;;;;;;;5091848;28;20070;-76
2023/10/21 05:22:50;;;;;;;47.15;18.73;;;;;;;;;;5095790;28;20028;-76
2023/10/21 05:25:16;;;;;;;50.22;19.35;;;;;;;;;;5098148;28;20491;-76
2023/10/21 05:27:42;;;;;;;53.42;19.40;;;;;;;;;;5089282;28;20037;-74
2023/10/21 05:30:08;;;;;;;50.60;19.95;;;;;;;;;;5097536;28;20085;-73
2023/10/21 05:32:34;;;;;;;52.15;19.85;;;;;;;;;;5103273;28;20034;-73
2023/10/21 05:35:01;;;;;;;35.60;19.13;;;;;;;;;;5093042;28;20105;-72
2023/10/21 05:37:27;;;;;;;42.95;19.15;;;;;;;;;;5092158;28;20463;-75
2023/10/21 05:39:54;;;;;;;56.40;20.48;;;;;;;;;;5091651;28;20032;-72
2023/10/21 05:42:20;;;;;;;51.92;19.40;;;;;;;;;;5092195;28;20016;-75
2023/10/21 05:44:47;;;;;;;38.85;18.42;;;;;;;;;;5092089;28;20561;-73
2023/10/21 05:47:13;;;;;;;37.72;19.33;;;;;;;;;;5091833;28;20444;-72
2023/10/21 05:49:39;;;;;;;32.30;17.80;;;;;;;;;;5091764;28;20055;-73
2023/10/21 05:52:05;;;;;;;34.70;18.55;;;;;;;;;;5092914;28;20035;-74
2023/10/21 05:54:31;;;;;;;42.13;18.65;;;;;;;;;;5091874;28;20099;-73
2023/10/21 05:56:57;;;;;;;34.55;19.75;;;;;;;;;;5092183;28;20084;-73
2023/10/21 05:59:23;;;;;;;43.35;19.77;;;;;;;;;;5092968;28;20032;-73
2023/10/21 06:01:49;;;;;;;43.58;19.27;;;;;;;;;;5093620;28;20025;-74
2023/10/21 06:04:15;;;;;;;45.53;19.73;;;;;;;;;;5091721;28;20020;-73
2023/10/21 06:06:41;;;;;;;36.35;18.30;;;;;;;;;;5095507;28;20027;-74
2023/10/21 06:09:09;;;;;;;57.42;19.23;;;;;;;;;;5094181;28;20024;-73
2023/10/21 06:11:35;;;;;;;43.58;19.30;;;;;;;;;;5095483;28;20028;-72
2023/10/21 06:14:01;;;;;;;37.90;18.42;;;;;;;;;;5096208;28;20028;-74
2023/10/21 06:16:27;;;;;;;56.72;17.92;;;;;;;;;;5095504;28;20450;-73
2023/10/21 06:18:53;;;;;;;45.65;18.45;;;;;;;;;;5098519;28;20056;-74
2023/10/21 06:21:19;;;;;;;36.40;18.75;;;;;;;;;;5097870;28;20107;-74
2023/10/21 06:23:45;;;;;;;34.25;18.40;;;;;;;;;;5100680;28;20051;-75
2023/10/21 06:26:11;;;;;;;34.83;19.25;;;;;;;;;;5096315;28;20450;-74
2023/10/21 06:28:38;;;;;;;38.88;19.63;;;;;;;;;;5098164;28;20028;-73
2023/10/21 06:31:04;;;;;;;31.52;18.75;;;;;;;;;;5099517;28;20053;-74
2023/10/21 06:33:30;;;;;;;45.13;18.73;;;;;;;;;;5095944;28;20036;-73
2023/10/21 06:35:56;;;;;;;32.85;17.50;;;;;;;;;;5115335;28;20030;-73
2023/10/21 06:38:22;;;;;;;34.33;18.08;;;;;;;;;;5116916;28;20489;-73
2023/10/21 06:40:48;;;;;;;29.83;17.58;;;;;;;;;;5123333;28;20020;-76
2023/10/21 06:43:14;;;;;;;34.72;17.80;;;;;;;;;;5098313;28;20489;-73
2023/10/21 06:45:40;;;;;;;33.47;17.75;;;;;;;;;;5115848;28;20031;-73
2023/10/21 06:48:07;;;;;;;31.13;16.05;;;;;;;;;;5116558;28;20031;-73
2023/10/21 06:50:33;;;;;;;27.55;15.70;;;;;;;;;;5120328;28;20059;-73
2023/10/21 06:52:59;;;;;;;24.80;14.95;;;;;;;;;;5118277;28;20031;-74
2023/10/21 06:55:24;;;;;;;25.95;14.75;;;;;;;;;;5118772;28;20024;-72
2023/10/21 06:57:54;;;;;;;27.15;16.13;;;;;;;;;;5116967;28;20447;-73
2023/10/21 07:00:20;;;;;;;29.40;16.08;;;;;;;;;;5116017;28;20471;-72
2023/10/21 07:02:46;;;;;;;32.60;17.58;;;;;;;;;;5115627;28;20024;-76
2023/10/21 07:05:11;;;;;;;30.85;16.88;;;;;;;;;;5116574;28;20039;-76
2023/10/21 07:07:41;;;;;;;33.72;16.83;;;;;;;;;;5116905;28;20038;-73
2023/10/21 07:10:09;;;;;;;29.80;17.00;;;;;;;;;;5114732;28;20028;-73
2023/10/21 07:12:35;;;;;;;29.30;17.58;;;;;;;;;;5114839;28;20027;-73
2023/10/21 07:15:01;;;;;;;33.70;17.55;;;;;;;;;;5115858;28;20031;-74
2023/10/21 07:17:29;;;;;;;32.70;17.90;;;;;;;;;;5114948;28;20020;-73
2023/10/21 07:19:56;;;;;;;31.80;18.50;;;;;;;;;;5113186;27;20046;-74
2023/10/21 07:22:22;;;;;;;32.65;17.67;;;;;;;;;;5115246;28;20294;-74
2023/10/21 07:24:48;;;;;;;32.53;17.60;;;;;;;;;;5104232;28;20114;-73
2023/10/21 07:27:14;;;;;;;35.25;17.85;;;;;;;;;;5119324;28;20027;-75
2023/10/21 07:29:41;;;;;;;31.42;17.23;;;;;;;;;;5117265;28;20245;-72
2023/10/21 07:32:07;;;;;;;27.48;16.70;;;;;;;;;;5114798;28;20402;-74
2023/10/21 07:34:33;;;;;;;28.73;15.85;;;;;;;;;;5115628;28;20027;-73
2023/10/21 07:36:59;;;;;;;26.95;16.50;;;;;;;;;;5115054;28;20039;-73
2023/10/21 07:39:26;;;;;;;22.98;14.40;;;;;;;;;;5119163;28;20020;-76
2023/10/21 07:45:17;;;;;;;25.73;15.23;;;;;;;;;;5112451;27;20310;-72
2023/10/21 07:47:43;;;;;;;25.90;15.93;;;;;;;;;;5116824;28;20020;-72
2023/10/21 07:50:10;;;;;;;27.45;15.88;;;;;;;;;;5128201;28;20030;-72
2023/10/21 07:52:36;;;;;;;25.65;15.15;;;;;;;;;;5113984;28;20031;-75
2023/10/21 07:55:03;;;;;;;25.20;14.75;;;;;;;;;;5112970;28;20031;-73
2023/10/21 07:57:29;;;;;;;23.27;14.13;;;;;;;;;;5110891;28;20028;-73
2023/10/21 07:59:55;;;;;;;24.80;13.82;;;;;;;;;;5108559;28;20030;-73
2023/10/21 08:02:21;;;;;;;21.98;13.80;;;;;;;;;;5111526;28;20026;-72
2023/10/21 08:04:48;;;;;;;19.85;12.93;;;;;;;;;;5115513;28;20043;-73
2023/10/21 08:07:15;;;;;;;21.50;13.45;;;;;;;;;;5119333;28;20070;-72
2023/10/21 08:09:41;;;;;;;21.75;13.43;;;;;;;;;;5113039;28;20282;-73
2023/10/21 08:12:08;;;;;;;22.70;13.45;;;;;;;;;;5109845;28;20016;-74
2023/10/21 08:14:36;;;;;;;22.00;14.32;;;;;;;;;;5109130;28;20020;-73
2023/10/21 08:17:04;;;;;;;20.77;13.82;;;;;;;;;;5109115;28;20431;-73
2023/10/21 08:19:30;;;;;;;27.02;15.90;;;;;;;;;;5108836;28;20474;-74
2023/10/21 08:21:57;;;;;;;19.73;13.13;;;;;;;;;;5108501;28;20024;-72
2023/10/21 08:24:23;;;;;;;21.52;13.52;;;;;;;;;;5108846;28;20437;-73
2023/10/21 08:26:49;;;;;;;20.95;12.48;;;;;;;;;;5108840;28;20030;-73
2023/10/21 08:29:15;;;;;;;16.88;11.00;;;;;;;;;;5108831;28;20016;-73
2023/10/21 08:31:41;;;;;;;20.13;11.68;;;;;;;;;;5108420;28;20024;-73
2023/10/21 08:34:12;;;;;;;16.30;9.93;;;;;;;;;;5110256;28;20031;-72
2023/10/21 08:36:39;;;;;;;17.52;9.88;;;;;;;;;;5109211;28;20085;-73
2023/10/21 08:39:08;;;;;;;16.48;10.00;;;;;;;;;;5108508;28;20101;-74
2023/10/21 08:41:40;;;;;;;15.32;9.80;;;;;;;;;;5108427;28;20487;-73
2023/10/21 08:44:07;;;;;;;13.95;8.65;;;;;;;;;;5110081;28;20057;-75
2023/10/21 08:46:33;;;;;;;12.82;8.68;;;;;;;;;;5109262;28;20019;-73
2023/10/21 08:49:03;;;;;;;17.17;8.52;;;;;;;;;;5109766;28;20548;-73
2023/10/21 08:51:30;;;;;;;16.73;8.60;;;;;;;;;;5110072;28;20061;-73
2023/10/21 08:53:59;;;;;;;10.82;7.78;;;;;;;;;;5108575;28;20494;-73
2023/10/21 08:56:27;;;;;;;12.70;7.93;;;;;;;;;;5096497;28;20081;-74
2023/10/21 08:58:55;;;;;;;12.48;8.00;;;;;;;;;;5097382;28;20020;-76
2023/10/21 09:01:22;;;;;;;11.73;7.70;;;;;;;;;;5094487;28;20364;-72
2023/10/21 09:03:49;;;;;;;11.15;6.90;;;;;;;;;;5094098;28;20047;-73
2023/10/21 09:06:17;;;;;;;10.95;6.80;;;;;;;;;;5097580;28;20023;-73
2023/10/21 09:08:44;;;;;;;13.07;7.50;;;;;;;;;;5095707;28;20049;-73
2023/10/21 09:11:13;;;;;;;10.60;6.85;;;;;;;;;;5096934;28;20055;-72
2023/10/21 09:13:40;;;;;;;17.73;11.27;;;;;;;;;;5096477;28;20023;-72
2023/10/21 09:16:26;;;;;;;16.23;8.95;;;;;;;;;;5095510;28;20429;-72
2023/10/21 09:19:03;;;;;;;10.50;7.25;;;;;;;;;;5095687;28;20032;-74
2023/10/21 09:21:38;;;;;;;9.50;5.95;;;;;;;;;;5094297;28;20024;-73
2023/10/21 09:24:05;;;;;;;8.50;5.38;;;;;;;;;;5093725;28;20495;-74
2023/10/21 09:26:32;;;;;;;7.90;5.60;;;;;;;;;;5094395;28;20058;-72
2023/10/21 09:29:06;;;;;;;21.42;11.63;;;;;;;;;;5093873;28;20048;-74
2023/10/21 09:31:41;;;;;;;10.35;5.43;;;;;;;;;;5094144;28;20371;-73
2023/10/21 09:34:07;;;;;;;6.88;4.78;;;;;;;;;;5093963;28;20054;-73
2023/10/21 09:36:42;;;;;;;12.80;7.90;;;;;;;;;;5093980;28;20415;-73
2023/10/21 09:39:09;;;;;;;10.07;5.28;;;;;;;;;;5093795;28;20096;-73
2023/10/21 09:41:37;;;;;;;5.97;4.50;;;;;;;;;;5093473;28;20016;-73
2023/10/21 09:44:03;;;;;;;7.10;5.15;;;;;;;;;;5093426;28;20032;-74
2023/10/21 09:46:31;;;;;;;6.03;4.30;;;;;;;;;;5093546;28;20027;-73
2023/10/21 09:49:03;;;;;;;6.28;4.75;;;;;;;;;;5093533;28;20020;-72
2023/10/21 09:51:31;;;;;;;7.90;4.78;;;;;;;;;;5093320;28;20024;-73
2023/10/21 09:54:01;;;;;;;7.72;4.75;;;;;;;;;;5098550;28;20129;-73
2023/10/21 09:56:27;;;;;;;7.45;5.10;;;;;;;;;;5096085;28;20118;-72
2023/10/21 09:58:55;;;;;;;6.93;4.53;;;;;;;;;;5096155;28;20034;-73
2023/10/21 10:01:24;;;;;;;8.95;5.20;;;;;;;;;;5095724;28;20032;-73
2023/10/21 10:03:55;;;;;;;13.85;10.27;;;;;;;;;;5098301;28;20426;-73
2023/10/21 10:06:22;;;;;;;7.53;4.60;;;;;;;;;;5093112;28;20144;-73
2023/10/21 10:08:48;;;;;;;7.65;4.43;;;;;;;;;;5092702;28;20028;-72
2023/10/21 10:11:16;;;;;;;7.13;4.10;;;;;;;;;;5093082;28;20016;-73
2023/10/21 10:13:46;;;;;;;7.15;4.60;;;;;;;;;;5093098;28;20035;-73
2023/10/21 10:16:21;;;;;;;7.28;5.38;;;;;;;;;;5093085;28;20487;-72
2023/10/21 10:18:50;;;;;;;9.52;4.75;;;;;;;;;;5093053;28;20104;-72
2023/10/21 10:21:16;;;;;;;6.43;4.30;;;;;;;;;;5092641;28;20028;-73
2023/10/21 10:23:49;;;;;;;5.60;4.13;;;;;;;;;;5092875;28;20028;-72
2023/10/21 10:26:28;;;;;;;6.30;4.00;;;;;;;;;;5094165;28;20073;-74
2023/10/21 10:28:54;;;;;;;8.48;4.43;;;;;;;;;;5094432;28;20309;-74
2023/10/21 10:31:21;;;;;;;6.93;4.10;;;;;;;;;;5092397;28;20538;-74
2023/10/21 10:33:51;;;;;;;6.72;4.25;;;;;;;;;;5092473;28;20051;-73
2023/10/21 10:36:26;;;;;;;6.88;4.35;;;;;;;;;;5093731;28;20099;-75
2023/10/21 10:38:54;;;;;;;5.72;4.30;;;;;;;;;;5094632;28;20483;-74
2023/10/21 10:41:20;;;;;;;5.68;4.25;;;;;;;;;;5095566;28;20051;-73
2023/10/21 10:44:01;;;;;;;7.15;4.78;;;;;;;;;;5093290;28;20062;-73
2023/10/21 10:46:28;;;;;;;7.05;5.03;;;;;;;;;;5092640;28;20016;-73
2023/10/21 10:48:54;;;;;;;12.02;5.30;;;;;;;;;;5092457;28;20025;-74
2023/10/21 10:51:30;;;;;;;7.97;5.25;;;;;;;;;;5093788;28;20518;-73
2023/10/21 10:54:00;;;;;;;7.53;5.40;;;;;;;;;;5092970;28;20023;-73
2023/10/21 10:56:39;;;;;;;8.80;6.30;;;;;;;;;;5092523;28;20031;-73
2023/10/21 10:59:05;;;;;;;11.85;7.05;;;;;;;;;;5092636;28;20052;-73
2023/10/21 11:01:31;;;;;;;11.65;7.75;;;;;;;;;;5092020;28;20058;-73
2023/10/21 11:03:57;;;;;;;14.13;7.90;;;;;;;;;;5092139;28;20024;-73
2023/10/21 11:06:36;;;;;;;14.48;9.07;;;;;;;;;;5092138;28;20471;-73
2023/10/21 11:09:08;;;;;;;11.50;8.05;;;;;;;;;;5096791;28;20066;-72
2023/10/21 11:11:54;;;;;;;20.27;10.13;;;;;;;;;;5094809;28;20082;-75
2023/10/21 11:14:23;;;;;;;12.85;8.82;;;;;;;;;;5092294;28;20047;-76
2023/10/21 11:16:49;;;;;;;16.95;9.75;;;;;;;;;;5091974;28;20483;-72
2023/10/21 11:19:15;;;;;;;15.30;10.13;;;;;;;;;;5091914;28;20107;-73
2023/10/21 11:21:51;;;;;;;14.32;9.50;;;;;;;;;;5091457;28;20073;-74
2023/10/21 11:24:19;;;;;;;15.45;9.88;;;;;;;;;;5091956;28;20032;-74
2023/10/21 11:26:45;;;;;;;15.15;9.45;;;;;;;;;;5091641;28;20098;-73
2023/10/21 11:29:11;;;;;;;13.80;8.45;;;;;;;;;;5090380;28;20032;-72
2023/10/21 11:31:37;;;;;;;14.48;9.07;;;;;;;;;;5092860;28;20034;-73
2023/10/21 11:34:14;;;;;;;28.05;18.13;;;;;;;;;;5094258;28;20027;-74
2023/10/21 11:36:44;;;;;;;16.70;10.43;;;;;;;;;;5093734;28;20031;-73
2023/10/21 11:39:14;;;;;;;15.27;10.32;;;;;;;;;;5092461;28;20027;-73
2023/10/21 11:41:44;;;;;;;17.30;11.15;;;;;;;;;;5091266;28;20024;-73
2023/10/21 11:44:10;;;;;;;16.40;10.82;;;;;;;;;;5091598;28;20520;-73
2023/10/21 11:46:39;;;;;;;18.92;11.80;;;;;;;;;;5092688;28;20100;-75
2023/10/21 11:49:13;;;;;;;18.77;11.23;;;;;;;;;;5091679;28;20021;-72
2023/10/21 11:51:39;;;;;;;15.40;10.93;;;;;;;;;;5092371;28;20032;-73
2023/10/21 11:54:08;;;;;;;17.15;11.13;;;;;;;;;;5091601;28;20035;-73
2023/10/21 11:57:41;;;;;;;20.40;12.95;;;;;;;;;;5092720;28;20024;-73
2023/10/21 12:31:55;;;;;;;16.08;11.07;;;;;;;;;;5094411;28;20387;-72
2023/10/21 12:42:30;;;;;;;14.85;10.27;;;;;;;;;;5097688;28;20024;-72
2023/10/21 12:45:01;;;;;;;15.32;10.25;;;;;;;;;;5096513;28;20115;-72
2023/10/21 12:47:28;;;;;;;16.45;10.82;;;;;;;;;;5095379;28;20340;-72
2023/10/21 12:49:57;;;;;;;14.85;10.15;;;;;;;;;;5095571;28;20044;-73
2023/10/21 12:52:23;;;;;;;15.52;10.27;;;;;;;;;;5095657;28;20020;-73
2023/10/21 12:54:51;;;;;;;14.50;9.73;;;;;;;;;;5097617;28;20054;-73
2023/10/21 12:57:17;;;;;;;15.50;10.95;;;;;;;;;;5097671;28;20471;-75
2023/10/21 12:59:43;;;;;;;18.85;11.73;;;;;;;;;;5100687;28;20032;-74
2023/10/21 13:02:10;;;;;;;16.50;11.45;;;;;;;;;;5095209;28;20146;-73
2023/10/21 13:04:40;;;;;;;19.88;13.50;;;;;;;;;;5094428;28;20368;-74
2023/10/21 13:07:06;;;;;;;16.20;12.57;;;;;;;;;;5094449;28;20519;-73
2023/10/21 13:09:33;;;;;;;18.98;12.57;;;;;;;;;;5094334;28;20429;-73
2023/10/21 13:12:00;;;;;;;18.17;11.80;;;;;;;;;;5094375;28;20024;-73
2023/10/21 13:14:29;;;;;;;19.38;12.77;;;;;;;;;;5094237;28;20197;-73
2023/10/21 13:16:56;;;;;;;16.38;10.32;;;;;;;;;;5094330;28;20376;-74
2023/10/21 13:19:24;;;;;;;15.43;9.73;;;;;;;;;;5093943;28;20024;-75
2023/10/21 13:21:53;;;;;;;15.60;10.95;;;;;;;;;;5098963;28;20045;-73
2023/10/21 13:24:19;;;;;;;18.08;11.73;;;;;;;;;;5098269;28;20085;-72
2023/10/21 13:26:45;;;;;;;15.68;10.85;;;;;;;;;;5093940;28;20016;-73
2023/10/21 13:29:11;;;;;;;16.38;11.13;;;;;;;;;;5094292;28;20045;-73
2023/10/21 13:31:39;;;;;;;16.65;11.07;;;;;;;;;;5093824;28;20463;-73
2023/10/21 13:34:06;;;;;;;16.25;12.10;;;;;;;;;;5094224;28;20023;-73
2023/10/21 13:36:33;;;;;;;14.23;10.55;;;;;;;;;;5093683;28;20501;-73
2023/10/21 13:39:00;;;;;;;17.50;12.02;;;;;;;;;;5093752;28;20108;-72
2023/10/21 13:41:26;;;;;;;17.85;11.95;;;;;;;;;;5093278;28;20028;-72
2023/10/21 13:43:53;;;;;;;22.63;14.93;;;;;;;;;;5093871;28;20032;-72
2023/10/21 13:46:19;;;;;;;17.58;12.25;;;;;;;;;;5093877;28;20020;-72
2023/10/21 13:48:45;;;;;;;14.90;11.32;;;;;;;;;;5093171;28;20028;-74
2023/10/21 13:51:11;;;;;;;19.75;12.18;;;;;;;;;;5092912;28;20020;-73
2023/10/21 13:53:37;;;;;;;18.02;12.00;;;;;;;;;;5093387;28;20051;-72
2023/10/21 13:56:06;;;;;;;20.38;12.20;;;;;;;;;;5092948;28;20108;-72
2023/10/21 13:58:32;;;;;;;17.85;11.93;;;;;;;;;;5093206;28;20020;-72
2023/10/21 14:00:59;;;;;;;21.27;12.57;;;;;;;;;;5092574;28;20028;-73
2023/10/21 14:03:25;;;;;;;18.08;11.38;;;;;;;;;;5092964;28;20073;-72
2023/10/21 14:05:52;;;;;;;16.40;12.20;;;;;;;;;;5093466;28;20020;-72
2023/10/21 14:08:20;;;;;;;18.40;11.35;;;;;;;;;;5093141;28;20024;-73
2023/10/21 14:10:47;;;;;;;17.10;12.43;;;;;;;;;;5094411;28;20391;-74
2023/10/21 14:13:16;;;;;;;17.33;12.18;;;;;;;;;;5092911;28;20027;-74
2023/10/21 14:15:45;;;;;;;17.60;12.73;;;;;;;;;;5092851;28;20020;-75
2023/10/21 14:18:11;;;;;;;18.20;12.63;;;;;;;;;;5091952;28;20024;-74
2023/10/21 14:20:40;;;;;;;18.92;13.05;;;;;;;;;;5092805;28;20020;-73
2023/10/21 14:23:10;;;;;;;15.95;11.55;;;;;;;;;;5093359;28;20023;-73
2023/10/21 14:25:39;;;;;;;18.10;12.32;;;;;;;;;;5092687;28;20151;-74
2023/10/21 14:28:13;;;;;;;15.65;11.70;;;;;;;;;;5092125;28;20107;-72
2023/10/21 14:30:43;;;;;;;17.58;11.63;;;;;;;;;;5092319;28;20023;-72
2023/10/21 14:33:12;;;;;;;17.20;12.20;;;;;;;;;;5093878;28;20337;-74
2023/10/21 14:35:39;;;;;;;22.13;11.75;;;;;;;;;;5092425;28;20027;-72
2023/10/21 14:38:06;;;;;;;18.10;9.88;;;;;;;;;;5092563;28;20032;-73
2023/10/21 14:40:32;;;;;;;12.75;9.20;;;;;;;;;;5095018;28;20047;-74
2023/10/21 14:42:58;;;;;;;12.57;8.23;;;;;;;;;;5095355;28;20031;-73
2023/10/21 14:45:24;;;;;;;17.77;9.27;;;;;;;;;;5095541;28;20039;-75
2023/10/21 14:47:50;;;;;;;12.27;9.00;;;;;;;;;;5094855;28;20383;-75
2023/10/21 14:50:16;;;;;;;15.80;8.38;;;;;;;;;;5094562;28;20414;-72
2023/10/21 14:52:43;;;;;;;11.85;7.63;;;;;;;;;;5091658;28;20024;-75
2023/10/21 14:55:09;;;;;;;12.65;8.35;;;;;;;;;;5092385;28;20024;-78
2023/10/21 14:57:35;;;;;;;14.27;7.78;;;;;;;;;;5091683;28;20479;-74
2023/10/21 15:00:05;;;;;;;13.00;8.63;;;;;;;;;;5091453;28;20031;-73
2023/10/21 15:02:32;;;;;;;14.35;8.32;;;;;;;;;;5091344;28;20107;-72
2023/10/21 15:04:58;;;;;;;13.20;8.45;;;;;;;;;;5091323;28;20032;-73
2023/10/21 15:07:24;;;;;;;17.73;8.75;;;;;;;;;;5093343;28;20422;-72